Прогноз погоды TAF Астрахань

СКИДКИ НА СМАРТФОНЫ!

Прогноз погоды TAF: 
TAF URWA 071100Z 0712/0721 10005G11MPS 6000 FEW006 BKN016 TEMPO 0715/0721 BKN010
Аэропорт подробнее: 
Регион: 

Скидки на навигаторы!